sensor_id;sensor_type;location;lat;lon;timestamp;P1;P2;P0
70691;PMS5003;58267;51.156;17.044;2023-11-19T00:00:22;65;59;
70691;PMS5003;58267;51.156;17.044;2023-11-19T00:02:48;51;46;
70691;PMS5003;58267;51.156;17.044;2023-11-19T00:05:14;40;40;
70691;PMS5003;58267;51.156;17.044;2023-11-19T00:07:39;72;60;
70691;PMS5003;58267;51.156;17.044;2023-11-19T00:10:05;69;58;
70691;PMS5003;58267;51.156;17.044;2023-11-19T00:12:30;57;53;
70691;PMS5003;58267;51.156;17.044;2023-11-19T00:14:55;60;54;
70691;PMS5003;58267;51.156;17.044;2023-11-19T00:17:21;61;57;
70691;PMS5003;58267;51.156;17.044;2023-11-19T00:19:46;65;59;
70691;PMS5003;58267;51.156;17.044;2023-11-19T00:22:12;60;58;
70691;PMS5003;58267;51.156;17.044;2023-11-19T00:24:37;66;60;
70691;PMS5003;58267;51.156;17.044;2023-11-19T00:27:02;65;59;
70691;PMS5003;58267;51.156;17.044;2023-11-19T00:29:28;78;66;
70691;PMS5003;58267;51.156;17.044;2023-11-19T00:31:53;69;66;
70691;PMS5003;58267;51.156;17.044;2023-11-19T00:34:19;61;58;
70691;PMS5003;58267;51.156;17.044;2023-11-19T00:36:49;77;66;
70691;PMS5003;58267;51.156;17.044;2023-11-19T00:39:09;73;66;
70691;PMS5003;58267;51.156;17.044;2023-11-19T00:41:34;71;65;
70691;PMS5003;58267;51.156;17.044;2023-11-19T00:44:00;71;62;
70691;PMS5003;58267;51.156;17.044;2023-11-19T00:46:25;63;60;
70691;PMS5003;58267;51.156;17.044;2023-11-19T00:48:51;82;70;
70691;PMS5003;58267;51.156;17.044;2023-11-19T00:51:16;65;63;
70691;PMS5003;58267;51.156;17.044;2023-11-19T00:53:42;63;59;
70691;PMS5003;58267;51.156;17.044;2023-11-19T00:56:08;69;60;
70691;PMS5003;58267;51.156;17.044;2023-11-19T00:58:33;71;62;
70691;PMS5003;58267;51.156;17.044;2023-11-19T01:00:58;65;61;
70691;PMS5003;58267;51.156;17.044;2023-11-19T01:03:24;71;62;
70691;PMS5003;58267;51.156;17.044;2023-11-19T01:05:49;67;60;
70691;PMS5003;58267;51.156;17.044;2023-11-19T01:08:14;64;60;
70691;PMS5003;58267;51.156;17.044;2023-11-19T01:10:40;62;59;
70691;PMS5003;58267;51.156;17.044;2023-11-19T01:13:05;52;49;
70691;PMS5003;58267;51.156;17.044;2023-11-19T01:15:31;53;49;
70691;PMS5003;58267;51.156;17.044;2023-11-19T01:17:57;65;58;
70691;PMS5003;58267;51.156;17.044;2023-11-19T01:20:23;61;57;
70691;PMS5003;58267;51.156;17.044;2023-11-19T01:22:48;66;59;
70691;PMS5003;58267;51.156;17.044;2023-11-19T01:25:13;67;64;
70691;PMS5003;58267;51.156;17.044;2023-11-19T01:27:39;57;50;
70691;PMS5003;58267;51.156;17.044;2023-11-19T01:30:05;60;53;
70691;PMS5003;58267;51.156;17.044;2023-11-19T01:32:30;36;29;
70691;PMS5003;58267;51.156;17.044;2023-11-19T01:34:56;58;53;
70691;PMS5003;58267;51.156;17.044;2023-11-19T01:37:21;54;48;
70691;PMS5003;58267;51.156;17.044;2023-11-19T01:39:47;65;58;
70691;PMS5003;58267;51.156;17.044;2023-11-19T01:42:13;72;63;
70691;PMS5003;58267;51.156;17.044;2023-11-19T01:44:38;58;52;
70691;PMS5003;58267;51.156;17.044;2023-11-19T01:47:04;64;57;
70691;PMS5003;58267;51.156;17.044;2023-11-19T01:49:29;59;56;
70691;PMS5003;58267;51.156;17.044;2023-11-19T01:51:54;68;57;
70691;PMS5003;58267;51.156;17.044;2023-11-19T01:54:20;53;52;
70691;PMS5003;58267;51.156;17.044;2023-11-19T01:56:45;58;54;
70691;PMS5003;58267;51.156;17.044;2023-11-19T01:59:11;54;52;
70691;PMS5003;58267;51.156;17.044;2023-11-19T02:01:36;56;52;
70691;PMS5003;58267;51.156;17.044;2023-11-19T02:04:02;57;53;
70691;PMS5003;58267;51.156;17.044;2023-11-19T02:06:27;60;55;
70691;PMS5003;58267;51.156;17.044;2023-11-19T02:08:52;65;60;
70691;PMS5003;58267;51.156;17.044;2023-11-19T02:11:17;54;47;
70691;PMS5003;58267;51.156;17.044;2023-11-19T02:13:43;50;46;
70691;PMS5003;58267;51.156;17.044;2023-11-19T02:16:08;55;53;
70691;PMS5003;58267;51.156;17.044;2023-11-19T02:18:34;48;46;
70691;PMS5003;58267;51.156;17.044;2023-11-19T02:20:59;59;50;
70691;PMS5003;58267;51.156;17.044;2023-11-19T02:23:25;54;49;
70691;PMS5003;58267;51.156;17.044;2023-11-19T02:25:56;50;43;
70691;PMS5003;58267;51.156;17.044;2023-11-19T02:28:16;49;47;
70691;PMS5003;58267;51.156;17.044;2023-11-19T02:30:41;45;40;
70691;PMS5003;58267;51.156;17.044;2023-11-19T02:33:07;47;44;
70691;PMS5003;58267;51.156;17.044;2023-11-19T02:35:33;50;46;
70691;PMS5003;58267;51.156;17.044;2023-11-19T02:37:59;37;37;
70691;PMS5003;58267;51.156;17.044;2023-11-19T02:40:24;52;46;
70691;PMS5003;58267;51.156;17.044;2023-11-19T02:42:50;55;48;
70691;PMS5003;58267;51.156;17.044;2023-11-19T02:45:15;58;55;
70691;PMS5003;58267;51.156;17.044;2023-11-19T02:47:41;53;49;
70691;PMS5003;58267;51.156;17.044;2023-11-19T02:50:07;61;56;
70691;PMS5003;58267;51.156;17.044;2023-11-19T02:52:32;51;48;
70691;PMS5003;58267;51.156;17.044;2023-11-19T02:54:57;57;51;
70691;PMS5003;58267;51.156;17.044;2023-11-19T02:57:23;56;51;
70691;PMS5003;58267;51.156;17.044;2023-11-19T02:59:49;52;50;
70691;PMS5003;58267;51.156;17.044;2023-11-19T03:02:14;55;53;
70691;PMS5003;58267;51.156;17.044;2023-11-19T03:04:40;56;54;
70691;PMS5003;58267;51.156;17.044;2023-11-19T03:07:05;63;55;
70691;PMS5003;58267;51.156;17.044;2023-11-19T03:09:31;58;52;
70691;PMS5003;58267;51.156;17.044;2023-11-19T03:11:56;56;53;
70691;PMS5003;58267;51.156;17.044;2023-11-19T03:14:22;59;54;
70691;PMS5003;58267;51.156;17.044;2023-11-19T03:16:47;52;48;
70691;PMS5003;58267;51.156;17.044;2023-11-19T03:19:13;56;54;
70691;PMS5003;58267;51.156;17.044;2023-11-19T03:21:38;53;48;
70691;PMS5003;58267;51.156;17.044;2023-11-19T03:24:03;63;56;
70691;PMS5003;58267;51.156;17.044;2023-11-19T03:26:29;54;53;
70691;PMS5003;58267;51.156;17.044;2023-11-19T03:28:56;62;55;
70691;PMS5003;58267;51.156;17.044;2023-11-19T03:31:21;60;58;
70691;PMS5003;58267;51.156;17.044;2023-11-19T03:33:46;57;55;
70691;PMS5003;58267;51.156;17.044;2023-11-19T03:36:12;58;52;
70691;PMS5003;58267;51.156;17.044;2023-11-19T03:38:38;55;52;
70691;PMS5003;58267;51.156;17.044;2023-11-19T03:43:30;57;52;
70691;PMS5003;58267;51.156;17.044;2023-11-19T03:45:54;58;55;
70691;PMS5003;58267;51.156;17.044;2023-11-19T03:48:20;55;48;
70691;PMS5003;58267;51.156;17.044;2023-11-19T03:50:45;55;49;
70691;PMS5003;58267;51.156;17.044;2023-11-19T03:53:11;58;52;
70691;PMS5003;58267;51.156;17.044;2023-11-19T03:55:36;52;47;
70691;PMS5003;58267;51.156;17.044;2023-11-19T03:58:01;53;50;
70691;PMS5003;58267;51.156;17.044;2023-11-19T04:00:27;55;49;
70691;PMS5003;58267;51.156;17.044;2023-11-19T04:02:52;56;51;
70691;PMS5003;58267;51.156;17.044;2023-11-19T04:05:17;57;54;
70691;PMS5003;58267;51.156;17.044;2023-11-19T04:07:42;57;51;
70691;PMS5003;58267;51.156;17.044;2023-11-19T04:10:08;54;53;
70691;PMS5003;58267;51.156;17.044;2023-11-19T04:12:34;53;51;
70691;PMS5003;58267;51.156;17.044;2023-11-19T04:14:59;51;47;
70691;PMS5003;58267;51.156;17.044;2023-11-19T04:17:25;50;46;
70691;PMS5003;58267;51.156;17.044;2023-11-19T04:19:50;48;42;
70691;PMS5003;58267;51.156;17.044;2023-11-19T04:22:15;49;48;
70691;PMS5003;58267;51.156;17.044;2023-11-19T04:24:40;48;45;
70691;PMS5003;58267;51.156;17.044;2023-11-19T04:27:06;50;46;
70691;PMS5003;58267;51.156;17.044;2023-11-19T04:29:31;47;43;
70691;PMS5003;58267;51.156;17.044;2023-11-19T04:31:57;44;43;
70691;PMS5003;58267;51.156;17.044;2023-11-19T04:34:22;47;45;
70691;PMS5003;58267;51.156;17.044;2023-11-19T04:36:47;48;44;
70691;PMS5003;58267;51.156;17.044;2023-11-19T04:39:13;51;48;
70691;PMS5003;58267;51.156;17.044;2023-11-19T04:44:04;59;51;
70691;PMS5003;58267;51.156;17.044;2023-11-19T04:46:30;50;46;
70691;PMS5003;58267;51.156;17.044;2023-11-19T04:48:56;48;44;
70691;PMS5003;58267;51.156;17.044;2023-11-19T04:51:21;43;41;
70691;PMS5003;58267;51.156;17.044;2023-11-19T04:53:47;49;42;
70691;PMS5003;58267;51.156;17.044;2023-11-19T04:56:12;54;43;
70691;PMS5003;58267;51.156;17.044;2023-11-19T04:58:38;45;41;
70691;PMS5003;58267;51.156;17.044;2023-11-19T05:01:04;41;39;
70691;PMS5003;58267;51.156;17.044;2023-11-19T05:03:28;40;38;
70691;PMS5003;58267;51.156;17.044;2023-11-19T05:05:54;40;38;
70691;PMS5003;58267;51.156;17.044;2023-11-19T05:08:20;47;43;
70691;PMS5003;58267;51.156;17.044;2023-11-19T05:10:45;21;21;
70691;PMS5003;58267;51.156;17.044;2023-11-19T05:13:11;50;46;
70691;PMS5003;58267;51.156;17.044;2023-11-19T05:15:36;42;40;
70691;PMS5003;58267;51.156;17.044;2023-11-19T05:18:02;42;40;
70691;PMS5003;58267;51.156;17.044;2023-11-19T05:20:27;44;42;
70691;PMS5003;58267;51.156;17.044;2023-11-19T05:22:53;44;41;
70691;PMS5003;58267;51.156;17.044;2023-11-19T05:25:18;36;35;
70691;PMS5003;58267;51.156;17.044;2023-11-19T05:27:44;43;40;
70691;PMS5003;58267;51.156;17.044;2023-11-19T05:30:10;42;38;
70691;PMS5003;58267;51.156;17.044;2023-11-19T05:32:35;42;39;
70691;PMS5003;58267;51.156;17.044;2023-11-19T05:35:00;46;44;
70691;PMS5003;58267;51.156;17.044;2023-11-19T05:37:26;32;30;
70691;PMS5003;58267;51.156;17.044;2023-11-19T05:39:51;46;44;
70691;PMS5003;58267;51.156;17.044;2023-11-19T05:42:16;40;36;
70691;PMS5003;58267;51.156;17.044;2023-11-19T05:44:41;45;39;
70691;PMS5003;58267;51.156;17.044;2023-11-19T05:47:07;40;37;
70691;PMS5003;58267;51.156;17.044;2023-11-19T05:49:33;45;41;
70691;PMS5003;58267;51.156;17.044;2023-11-19T05:51:58;37;36;
70691;PMS5003;58267;51.156;17.044;2023-11-19T05:54:23;39;37;
70691;PMS5003;58267;51.156;17.044;2023-11-19T05:56:49;44;42;
70691;PMS5003;58267;51.156;17.044;2023-11-19T05:59:15;38;38;
70691;PMS5003;58267;51.156;17.044;2023-11-19T06:01:40;37;36;
70691;PMS5003;58267;51.156;17.044;2023-11-19T06:04:05;40;37;
70691;PMS5003;58267;51.156;17.044;2023-11-19T06:06:31;40;39;
70691;PMS5003;58267;51.156;17.044;2023-11-19T06:08:56;38;35;
70691;PMS5003;58267;51.156;17.044;2023-11-19T06:11:22;37;35;
70691;PMS5003;58267;51.156;17.044;2023-11-19T06:13:47;35;33;
70691;PMS5003;58267;51.156;17.044;2023-11-19T06:16:13;40;35;
70691;PMS5003;58267;51.156;17.044;2023-11-19T06:18:38;46;39;
70691;PMS5003;58267;51.156;17.044;2023-11-19T06:21:04;40;37;
70691;PMS5003;58267;51.156;17.044;2023-11-19T06:23:29;40;35;
70691;PMS5003;58267;51.156;17.044;2023-11-19T06:25:54;36;33;
70691;PMS5003;58267;51.156;17.044;2023-11-19T06:28:19;39;36;
70691;PMS5003;58267;51.156;17.044;2023-11-19T06:30:45;39;37;
70691;PMS5003;58267;51.156;17.044;2023-11-19T06:33:12;42;38;
70691;PMS5003;58267;51.156;17.044;2023-11-19T06:35:36;41;38;
70691;PMS5003;58267;51.156;17.044;2023-11-19T06:38:01;36;35;
70691;PMS5003;58267;51.156;17.044;2023-11-19T06:40:27;38;35;
70691;PMS5003;58267;51.156;17.044;2023-11-19T06:42:52;36;32;
70691;PMS5003;58267;51.156;17.044;2023-11-19T06:45:18;35;33;
70691;PMS5003;58267;51.156;17.044;2023-11-19T06:47:43;36;36;
70691;PMS5003;58267;51.156;17.044;2023-11-19T06:50:09;42;39;
70691;PMS5003;58267;51.156;17.044;2023-11-19T06:52:35;37;34;
70691;PMS5003;58267;51.156;17.044;2023-11-19T06:55:00;31;30;
70691;PMS5003;58267;51.156;17.044;2023-11-19T06:57:26;33;32;
70691;PMS5003;58267;51.156;17.044;2023-11-19T06:59:51;39;33;
70691;PMS5003;58267;51.156;17.044;2023-11-19T07:02:17;32;29;
70691;PMS5003;58267;51.156;17.044;2023-11-19T07:04:42;32;29;
70691;PMS5003;58267;51.156;17.044;2023-11-19T07:07:08;35;31;
70691;PMS5003;58267;51.156;17.044;2023-11-19T07:09:33;42;38;
70691;PMS5003;58267;51.156;17.044;2023-11-19T07:12:01;23;23;
70691;PMS5003;58267;51.156;17.044;2023-11-19T07:14:26;31;29;
70691;PMS5003;58267;51.156;17.044;2023-11-19T07:16:51;34;29;
70691;PMS5003;58267;51.156;17.044;2023-11-19T07:19:17;37;33;
70691;PMS5003;58267;51.156;17.044;2023-11-19T07:21:43;29;27;
70691;PMS5003;58267;51.156;17.044;2023-11-19T07:24:08;36;33;
70691;PMS5003;58267;51.156;17.044;2023-11-19T07:26:33;36;32;
70691;PMS5003;58267;51.156;17.044;2023-11-19T07:28:58;31;30;
70691;PMS5003;58267;51.156;17.044;2023-11-19T07:31:24;23;22;
70691;PMS5003;58267;51.156;17.044;2023-11-19T07:33:49;32;31;
70691;PMS5003;58267;51.156;17.044;2023-11-19T07:36:15;27;26;
70691;PMS5003;58267;51.156;17.044;2023-11-19T07:38:41;27;25;
70691;PMS5003;58267;51.156;17.044;2023-11-19T07:41:07;28;28;
70691;PMS5003;58267;51.156;17.044;2023-11-19T07:43:32;34;31;
70691;PMS5003;58267;51.156;17.044;2023-11-19T07:45:58;33;29;
70691;PMS5003;58267;51.156;17.044;2023-11-19T07:48:23;30;29;
70691;PMS5003;58267;51.156;17.044;2023-11-19T07:50:49;32;32;
70691;PMS5003;58267;51.156;17.044;2023-11-19T07:53:15;33;31;
70691;PMS5003;58267;51.156;17.044;2023-11-19T07:55:40;33;30;
70691;PMS5003;58267;51.156;17.044;2023-11-19T07:58:06;29;28;
70691;PMS5003;58267;51.156;17.044;2023-11-19T08:00:31;30;29;
70691;PMS5003;58267;51.156;17.044;2023-11-19T08:02:56;36;33;
70691;PMS5003;58267;51.156;17.044;2023-11-19T08:05:22;30;26;
70691;PMS5003;58267;51.156;17.044;2023-11-19T08:07:48;34;30;
70691;PMS5003;58267;51.156;17.044;2023-11-19T08:10:13;36;34;
70691;PMS5003;58267;51.156;17.044;2023-11-19T08:12:39;30;30;
70691;PMS5003;58267;51.156;17.044;2023-11-19T08:15:04;32;29;
70691;PMS5003;58267;51.156;17.044;2023-11-19T08:17:30;28;28;
70691;PMS5003;58267;51.156;17.044;2023-11-19T08:19:55;31;27;
70691;PMS5003;58267;51.156;17.044;2023-11-19T08:22:21;32;31;
70691;PMS5003;58267;51.156;17.044;2023-11-19T08:24:47;32;31;
70691;PMS5003;58267;51.156;17.044;2023-11-19T08:27:13;33;30;
70691;PMS5003;58267;51.156;17.044;2023-11-19T08:29:38;33;31;
70691;PMS5003;58267;51.156;17.044;2023-11-19T08:32:04;25;24;
70691;PMS5003;58267;51.156;17.044;2023-11-19T08:34:29;28;25;
70691;PMS5003;58267;51.156;17.044;2023-11-19T08:36:54;29;26;
70691;PMS5003;58267;51.156;17.044;2023-11-19T08:39:20;34;33;
70691;PMS5003;58267;51.156;17.044;2023-11-19T08:41:45;33;31;
70691;PMS5003;58267;51.156;17.044;2023-11-19T08:44:10;32;30;
70691;PMS5003;58267;51.156;17.044;2023-11-19T08:46:36;26;25;
70691;PMS5003;58267;51.156;17.044;2023-11-19T08:49:01;36;31;
70691;PMS5003;58267;51.156;17.044;2023-11-19T08:51:27;35;31;
70691;PMS5003;58267;51.156;17.044;2023-11-19T08:53:53;29;28;
70691;PMS5003;58267;51.156;17.044;2023-11-19T08:56:19;25;23;
70691;PMS5003;58267;51.156;17.044;2023-11-19T08:58:44;28;27;
70691;PMS5003;58267;51.156;17.044;2023-11-19T09:01:10;33;33;
70691;PMS5003;58267;51.156;17.044;2023-11-19T09:03:36;33;31;
70691;PMS5003;58267;51.156;17.044;2023-11-19T09:06:02;36;35;
70691;PMS5003;58267;51.156;17.044;2023-11-19T09:08:27;27;25;
70691;PMS5003;58267;51.156;17.044;2023-11-19T09:10:52;34;30;
70691;PMS5003;58267;51.156;17.044;2023-11-19T09:13:17;29;29;
70691;PMS5003;58267;51.156;17.044;2023-11-19T09:15:42;29;28;
70691;PMS5003;58267;51.156;17.044;2023-11-19T09:18:08;28;25;
70691;PMS5003;58267;51.156;17.044;2023-11-19T09:20:34;33;32;
70691;PMS5003;58267;51.156;17.044;2023-11-19T09:22:59;30;28;
70691;PMS5003;58267;51.156;17.044;2023-11-19T09:25:24;33;32;
70691;PMS5003;58267;51.156;17.044;2023-11-19T09:27:50;30;29;
70691;PMS5003;58267;51.156;17.044;2023-11-19T09:30:15;34;29;
70691;PMS5003;58267;51.156;17.044;2023-11-19T09:32:40;33;30;
70691;PMS5003;58267;51.156;17.044;2023-11-19T09:35:06;30;29;
70691;PMS5003;58267;51.156;17.044;2023-11-19T09:37:31;30;27;
70691;PMS5003;58267;51.156;17.044;2023-11-19T09:39:57;30;28;
70691;PMS5003;58267;51.156;17.044;2023-11-19T09:42:23;25;23;
70691;PMS5003;58267;51.156;17.044;2023-11-19T09:44:48;28;26;
70691;PMS5003;58267;51.156;17.044;2023-11-19T09:47:13;29;27;
70691;PMS5003;58267;51.156;17.044;2023-11-19T09:49:39;30;29;
70691;PMS5003;58267;51.156;17.044;2023-11-19T09:52:05;29;28;
70691;PMS5003;58267;51.156;17.044;2023-11-19T09:54:30;33;29;
70691;PMS5003;58267;51.156;17.044;2023-11-19T09:56:57;32;31;
70691;PMS5003;58267;51.156;17.044;2023-11-19T09:59:21;27;25;
70691;PMS5003;58267;51.156;17.044;2023-11-19T10:01:47;32;28;
70691;PMS5003;58267;51.156;17.044;2023-11-19T10:04:12;30;29;
70691;PMS5003;58267;51.156;17.044;2023-11-19T10:06:37;29;28;
70691;PMS5003;58267;51.156;17.044;2023-11-19T10:09:03;28;27;
70691;PMS5003;58267;51.156;17.044;2023-11-19T10:11:28;23;22;
70691;PMS5003;58267;51.156;17.044;2023-11-19T10:13:54;27;26;
70691;PMS5003;58267;51.156;17.044;2023-11-19T10:16:28;30;27;
70691;PMS5003;58267;51.156;17.044;2023-11-19T10:18:45;29;28;
70691;PMS5003;58267;51.156;17.044;2023-11-19T10:21:10;31;30;
70691;PMS5003;58267;51.156;17.044;2023-11-19T10:26:02;26;25;
70691;PMS5003;58267;51.156;17.044;2023-11-19T10:28:26;29;28;
70691;PMS5003;58267;51.156;17.044;2023-11-19T10:30:55;26;24;
70691;PMS5003;58267;51.156;17.044;2023-11-19T10:33:17;31;30;
70691;PMS5003;58267;51.156;17.044;2023-11-19T10:40:37;28;26;
70691;PMS5003;58267;51.156;17.044;2023-11-19T10:43:01;33;31;
70691;PMS5003;58267;51.156;17.044;2023-11-19T10:45:25;33;32;
70691;PMS5003;58267;51.156;17.044;2023-11-19T10:47:51;31;29;
70691;PMS5003;58267;51.156;17.044;2023-11-19T10:50:17;29;26;
70691;PMS5003;58267;51.156;17.044;2023-11-19T10:52:43;27;26;
70691;PMS5003;58267;51.156;17.044;2023-11-19T10:55:08;29;27;
70691;PMS5003;58267;51.156;17.044;2023-11-19T10:57:34;32;31;
70691;PMS5003;58267;51.156;17.044;2023-11-19T11:00:00;14;14;
70691;PMS5003;58267;51.156;17.044;2023-11-19T11:02:26;29;27;
70691;PMS5003;58267;51.156;17.044;2023-11-19T11:04:51;32;31;
70691;PMS5003;58267;51.156;17.044;2023-11-19T11:07:17;32;30;
70691;PMS5003;58267;51.156;17.044;2023-11-19T11:09:43;32;31;
70691;PMS5003;58267;51.156;17.044;2023-11-19T11:12:09;34;33;
70691;PMS5003;58267;51.156;17.044;2023-11-19T11:14:34;28;27;
70691;PMS5003;58267;51.156;17.044;2023-11-19T11:17:00;29;26;
70691;PMS5003;58267;51.156;17.044;2023-11-19T11:19:25;26;24;
70691;PMS5003;58267;51.156;17.044;2023-11-19T11:21:52;26;25;
70691;PMS5003;58267;51.156;17.044;2023-11-19T11:24:23;30;28;
70691;PMS5003;58267;51.156;17.044;2023-11-19T11:29:09;30;29;
70691;PMS5003;58267;51.156;17.044;2023-11-19T11:31:36;31;29;
70691;PMS5003;58267;51.156;17.044;2023-11-19T11:34:02;31;28;
70691;PMS5003;58267;51.156;17.044;2023-11-19T11:36:24;28;27;
70691;PMS5003;58267;51.156;17.044;2023-11-19T11:38:50;26;25;
70691;PMS5003;58267;51.156;17.044;2023-11-19T11:41:16;28;26;
70691;PMS5003;58267;51.156;17.044;2023-11-19T11:43:44;24;23;
70691;PMS5003;58267;51.156;17.044;2023-11-19T11:46:06;25;24;
70691;PMS5003;58267;51.156;17.044;2023-11-19T11:48:31;154;139;
70691;PMS5003;58267;51.156;17.044;2023-11-19T11:50:57;36;36;
70691;PMS5003;58267;51.156;17.044;2023-11-19T11:53:23;23;23;
70691;PMS5003;58267;51.156;17.044;2023-11-19T11:58:13;20;20;
70691;PMS5003;58267;51.156;17.044;2023-11-19T12:00:39;23;22;
70691;PMS5003;58267;51.156;17.044;2023-11-19T12:03:05;20;19;
70691;PMS5003;58267;51.156;17.044;2023-11-19T12:05:30;21;20;
70691;PMS5003;58267;51.156;17.044;2023-11-19T12:07:55;25;24;
70691;PMS5003;58267;51.156;17.044;2023-11-19T12:10:21;22;22;
70691;PMS5003;58267;51.156;17.044;2023-11-19T12:12:46;21;18;
70691;PMS5003;58267;51.156;17.044;2023-11-19T12:15:12;18;18;
70691;PMS5003;58267;51.156;17.044;2023-11-19T12:17:41;18;18;
70691;PMS5003;58267;51.156;17.044;2023-11-19T12:20:04;22;21;
70691;PMS5003;58267;51.156;17.044;2023-11-19T12:22:28;19;18;
70691;PMS5003;58267;51.156;17.044;2023-11-19T12:24:54;22;19;
70691;PMS5003;58267;51.156;17.044;2023-11-19T12:27:20;17;17;
70691;PMS5003;58267;51.156;17.044;2023-11-19T12:29:45;19;18;
70691;PMS5003;58267;51.156;17.044;2023-11-19T12:32:11;20;20;
70691;PMS5003;58267;51.156;17.044;2023-11-19T12:34:36;18;17;
70691;PMS5003;58267;51.156;17.044;2023-11-19T12:37:03;18;18;
70691;PMS5003;58267;51.156;17.044;2023-11-19T12:39:29;21;19;
70691;PMS5003;58267;51.156;17.044;2023-11-19T12:41:52;16;16;
70691;PMS5003;58267;51.156;17.044;2023-11-19T12:44:18;17;17;
70691;PMS5003;58267;51.156;17.044;2023-11-19T12:46:43;23;21;
70691;PMS5003;58267;51.156;17.044;2023-11-19T12:49:09;21;20;
70691;PMS5003;58267;51.156;17.044;2023-11-19T12:51:35;21;21;
70691;PMS5003;58267;51.156;17.044;2023-11-19T12:54:00;18;18;
70691;PMS5003;58267;51.156;17.044;2023-11-19T12:56:25;22;22;
70691;PMS5003;58267;51.156;17.044;2023-11-19T12:58:51;24;22;
70691;PMS5003;58267;51.156;17.044;2023-11-19T13:01:17;20;20;
70691;PMS5003;58267;51.156;17.044;2023-11-19T13:03:42;22;21;
70691;PMS5003;58267;51.156;17.044;2023-11-19T13:06:08;32;31;
70691;PMS5003;58267;51.156;17.044;2023-11-19T13:08:36;29;25;
70691;PMS5003;58267;51.156;17.044;2023-11-19T13:10:58;19;19;
70691;PMS5003;58267;51.156;17.044;2023-11-19T13:13:24;25;25;
70691;PMS5003;58267;51.156;17.044;2023-11-19T13:15:49;23;23;
70691;PMS5003;58267;51.156;17.044;2023-11-19T13:18:16;28;27;
70691;PMS5003;58267;51.156;17.044;2023-11-19T13:20:41;23;21;
70691;PMS5003;58267;51.156;17.044;2023-11-19T13:23:06;26;24;
70691;PMS5003;58267;51.156;17.044;2023-11-19T13:25:31;28;27;
70691;PMS5003;58267;51.156;17.044;2023-11-19T13:27:57;25;24;
70691;PMS5003;58267;51.156;17.044;2023-11-19T13:30:23;29;29;
70691;PMS5003;58267;51.156;17.044;2023-11-19T13:32:48;30;29;
70691;PMS5003;58267;51.156;17.044;2023-11-19T13:35:14;24;24;
70691;PMS5003;58267;51.156;17.044;2023-11-19T13:37:39;23;22;
70691;PMS5003;58267;51.156;17.044;2023-11-19T13:40:05;23;23;
70691;PMS5003;58267;51.156;17.044;2023-11-19T13:42:30;24;23;
70691;PMS5003;58267;51.156;17.044;2023-11-19T13:44:57;23;23;
70691;PMS5003;58267;51.156;17.044;2023-11-19T13:47:22;26;23;
70691;PMS5003;58267;51.156;17.044;2023-11-19T13:49:48;28;26;
70691;PMS5003;58267;51.156;17.044;2023-11-19T13:52:14;25;24;
70691;PMS5003;58267;51.156;17.044;2023-11-19T13:54:38;23;23;
70691;PMS5003;58267;51.156;17.044;2023-11-19T13:57:04;28;25;
70691;PMS5003;58267;51.156;17.044;2023-11-19T13:59:30;28;26;
70691;PMS5003;58267;51.156;17.044;2023-11-19T14:01:54;31;29;
70691;PMS5003;58267;51.156;17.044;2023-11-19T14:04:20;31;27;
70691;PMS5003;58267;51.156;17.044;2023-11-19T14:06:46;28;27;
70691;PMS5003;58267;51.156;17.044;2023-11-19T14:09:11;30;29;
70691;PMS5003;58267;51.156;17.044;2023-11-19T14:11:36;34;33;
70691;PMS5003;58267;51.156;17.044;2023-11-19T14:14:02;32;31;
70691;PMS5003;58267;51.156;17.044;2023-11-19T14:16:27;33;33;
70691;PMS5003;58267;51.156;17.044;2023-11-19T14:18:52;33;32;
70691;PMS5003;58267;51.156;17.044;2023-11-19T14:21:18;37;33;
70691;PMS5003;58267;51.156;17.044;2023-11-19T14:23:44;38;36;
70691;PMS5003;58267;51.156;17.044;2023-11-19T14:26:09;32;32;
70691;PMS5003;58267;51.156;17.044;2023-11-19T14:28:35;36;34;
70691;PMS5003;58267;51.156;17.044;2023-11-19T14:31:01;36;35;
70691;PMS5003;58267;51.156;17.044;2023-11-19T14:33:27;40;39;
70691;PMS5003;58267;51.156;17.044;2023-11-19T14:35:52;38;38;
70691;PMS5003;58267;51.156;17.044;2023-11-19T14:38:18;39;39;
70691;PMS5003;58267;51.156;17.044;2023-11-19T14:40:43;40;38;
70691;PMS5003;58267;51.156;17.044;2023-11-19T14:43:08;42;41;
70691;PMS5003;58267;51.156;17.044;2023-11-19T14:45:33;49;45;
70691;PMS5003;58267;51.156;17.044;2023-11-19T14:47:59;49;46;
70691;PMS5003;58267;51.156;17.044;2023-11-19T14:50:24;48;44;
70691;PMS5003;58267;51.156;17.044;2023-11-19T14:52:50;57;51;
70691;PMS5003;58267;51.156;17.044;2023-11-19T14:55:15;50;47;
70691;PMS5003;58267;51.156;17.044;2023-11-19T14:57:40;39;39;
70691;PMS5003;58267;51.156;17.044;2023-11-19T15:00:06;45;41;
70691;PMS5003;58267;51.156;17.044;2023-11-19T15:02:31;39;37;
70691;PMS5003;58267;51.156;17.044;2023-11-19T15:04:56;39;35;
70691;PMS5003;58267;51.156;17.044;2023-11-19T15:07:22;30;28;
70691;PMS5003;58267;51.156;17.044;2023-11-19T15:09:47;32;28;
70691;PMS5003;58267;51.156;17.044;2023-11-19T15:12:13;22;22;
70691;PMS5003;58267;51.156;17.044;2023-11-19T15:14:38;27;26;
70691;PMS5003;58267;51.156;17.044;2023-11-19T15:17:04;24;24;
70691;PMS5003;58267;51.156;17.044;2023-11-19T15:19:30;26;23;
70691;PMS5003;58267;51.156;17.044;2023-11-19T15:21:55;23;22;
70691;PMS5003;58267;51.156;17.044;2023-11-19T15:24:20;22;20;
70691;PMS5003;58267;51.156;17.044;2023-11-19T15:26:45;22;22;
70691;PMS5003;58267;51.156;17.044;2023-11-19T15:29:10;27;25;
70691;PMS5003;58267;51.156;17.044;2023-11-19T15:31:36;30;26;
70691;PMS5003;58267;51.156;17.044;2023-11-19T15:34:01;37;36;
70691;PMS5003;58267;51.156;17.044;2023-11-19T15:36:27;23;21;
70691;PMS5003;58267;51.156;17.044;2023-11-19T15:38:52;23;22;
70691;PMS5003;58267;51.156;17.044;2023-11-19T15:41:18;31;29;
70691;PMS5003;58267;51.156;17.044;2023-11-19T15:43:43;22;21;
70691;PMS5003;58267;51.156;17.044;2023-11-19T15:46:09;23;22;
70691;PMS5003;58267;51.156;17.044;2023-11-19T15:48:34;23;22;
70691;PMS5003;58267;51.156;17.044;2023-11-19T15:51:00;25;23;
70691;PMS5003;58267;51.156;17.044;2023-11-19T15:53:25;26;25;
70691;PMS5003;58267;51.156;17.044;2023-11-19T15:55:51;28;26;
70691;PMS5003;58267;51.156;17.044;2023-11-19T15:58:16;24;21;
70691;PMS5003;58267;51.156;17.044;2023-11-19T16:00:42;28;25;
70691;PMS5003;58267;51.156;17.044;2023-11-19T16:03:07;26;25;
70691;PMS5003;58267;51.156;17.044;2023-11-19T16:05:33;33;30;